Laurence G Hanscom Field Bedford US
ICAO: KBED
IATA: BED
Category: Medium
Scheduled Services: No

Elevation: 133 ft
TransAlt. 18000 ft.

Airport Communications:
BOSTON APP/DEP:124.4
ATIS:124.6
CLNC DEL:121.85
CTAF:118.5
HANSCOM GND:121.7
HANSCOM COMD POST:39.71
HANSCOM TWR:118.5
UNICOM:122.95

KBED Zoom In..

Runways:

(A) RW 05 length 5107 ft width 150 ft
---- / hdg 53

(B) RW 11 length 7011 ft width 150 ft
ILS 111.15 / hdg 113

(C) RW 23 length 5107 ft width 150 ft
---- / hdg 233

(D) RW 29 length 7011 ft width 150 ft
ILS 111.15 / hdg 293

Location; KBED
Day. 23 / Time. 15.28 Zulu
* Altimeter: 29.79
* Temperature: -01° c. -30.2°f.
* Wind from: 030° Speed 04 kn.
Dewpoint: -01° c.
Visibility: 1 m.
Clouds: Overcast 400 ft.
Conditions: Mist.

KBED 231528Z 03004KT 1 1/2SM -FZRA BR OVC004 M01/M01 A2979 RMK AO2 P0005 I1001 T10061011


Wind From 030°
Speed 04 kn.

YouTube Music Video
 
jpsmedia.com for Web Design  worldairports.se 2018   terms of use